createdAt,value
2018-01-27T00:01:57.216Z,11.80
2018-01-27T00:04:25.429Z,11.70
2018-01-27T00:06:52.865Z,11.70
2018-01-27T00:09:20.307Z,11.80
2018-01-27T00:11:48.675Z,11.50
2018-01-27T00:14:16.892Z,11.20
2018-01-27T00:16:44.340Z,11.10
2018-01-27T00:19:11.774Z,11.30
2018-01-27T00:21:39.974Z,11.30
2018-01-27T00:24:07.461Z,11.20
2018-01-27T00:26:34.901Z,11.40
2018-01-27T00:29:02.377Z,11.50
2018-01-27T00:31:29.833Z,11.50
2018-01-27T00:33:57.296Z,11.50
2018-01-27T00:36:24.736Z,11.70
2018-01-27T00:38:52.180Z,11.70
2018-01-27T00:41:19.620Z,11.90
2018-01-27T00:43:47.058Z,12.00
2018-01-27T00:46:14.488Z,12.00
2018-01-27T00:48:41.941Z,12.10
2018-01-27T00:51:09.374Z,12.10
2018-01-27T00:53:36.884Z,12.20
2018-01-27T00:56:05.107Z,12.20
2018-01-27T00:58:32.549Z,12.20
2018-01-27T01:00:59.993Z,12.20
2018-01-27T01:03:28.208Z,12.10
2018-01-27T01:05:55.729Z,12.10
2018-01-27T01:08:23.928Z,12.10
2018-01-27T01:10:51.373Z,12.00
2018-01-27T01:13:18.808Z,12.00
2018-01-27T01:15:47.020Z,11.80
2018-01-27T01:18:14.460Z,11.80
2018-01-27T01:20:41.898Z,11.80
2018-01-27T01:23:10.103Z,11.90
2018-01-27T01:25:37.557Z,11.90
2018-01-27T01:28:05.797Z,11.70
2018-01-27T01:30:33.214Z,11.60
2018-01-27T01:33:00.676Z,11.70
2018-01-27T01:35:28.108Z,11.90
2018-01-27T01:37:55.538Z,11.80
2018-01-27T01:40:23.745Z,11.90
2018-01-27T01:42:56.921Z,11.90
2018-01-27T01:45:24.368Z,12.00
2018-01-27T01:47:52.583Z,12.00
2018-01-27T01:50:20.014Z,12.00
2018-01-27T01:52:47.446Z,11.90
2018-01-27T01:55:15.645Z,12.00
2018-01-27T01:57:43.084Z,12.00
2018-01-27T02:00:11.292Z,11.90
2018-01-27T02:02:38.723Z,11.90
2018-01-27T02:05:06.932Z,11.70
2018-01-27T02:07:34.368Z,11.70
2018-01-27T02:10:01.813Z,11.70
2018-01-27T02:12:29.265Z,11.60
2018-01-27T02:14:57.489Z,11.80
2018-01-27T02:17:24.919Z,11.80
2018-01-27T02:19:52.388Z,11.70
2018-01-27T02:22:19.805Z,11.80
2018-01-27T02:24:48.018Z,11.60
2018-01-27T02:27:15.448Z,11.60
2018-01-27T02:29:43.652Z,11.40
2018-01-27T02:32:11.080Z,11.40
2018-01-27T02:34:38.539Z,11.40
2018-01-27T02:37:05.977Z,11.40
2018-01-27T02:39:33.423Z,11.50
2018-01-27T02:42:00.857Z,11.40
2018-01-27T02:44:28.294Z,11.50
2018-01-27T02:46:55.727Z,11.70
2018-01-27T02:49:23.169Z,11.40
2018-01-27T02:51:51.359Z,11.40
2018-01-27T02:54:19.560Z,11.30
2018-01-27T02:56:47.021Z,11.30
2018-01-27T02:59:14.474Z,11.50
2018-01-27T03:01:41.936Z,11.30
2018-01-27T03:04:09.369Z,11.30
2018-01-27T03:06:36.792Z,11.30
2018-01-27T03:09:04.227Z,11.50
2018-01-27T03:11:31.659Z,11.60
2018-01-27T03:13:59.136Z,11.70
2018-01-27T03:16:26.582Z,11.60
2018-01-27T03:18:54.000Z,11.60
2018-01-27T03:21:22.209Z,11.50
2018-01-27T03:23:51.324Z,11.60
2018-01-27T03:26:18.770Z,11.50
2018-01-27T03:28:46.218Z,11.40
2018-01-27T03:31:13.672Z,11.60
2018-01-27T03:33:41.097Z,11.30
2018-01-27T03:36:09.329Z,11.40
2018-01-27T03:38:36.745Z,11.40
2018-01-27T03:41:04.180Z,11.60
2018-01-27T03:43:32.381Z,11.60
2018-01-27T03:45:59.833Z,11.60
2018-01-27T03:48:27.322Z,11.60
2018-01-27T03:50:54.769Z,11.70
2018-01-27T03:53:22.205Z,11.70
2018-01-27T03:55:50.570Z,11.60
2018-01-27T03:58:18.794Z,11.50
2018-01-27T04:00:46.232Z,11.50
2018-01-27T04:03:13.652Z,11.70
2018-01-27T04:05:41.867Z,11.60
2018-01-27T04:08:09.296Z,11.60
2018-01-27T04:10:37.505Z,11.60
2018-01-27T04:13:04.948Z,11.60
2018-01-27T04:15:32.388Z,11.60
2018-01-27T04:18:00.630Z,11.30
2018-01-27T04:20:28.058Z,11.20
2018-01-27T04:22:55.500Z,11.30
2018-01-27T04:25:22.974Z,11.40
2018-01-27T04:27:50.662Z,11.60
2018-01-27T04:30:18.107Z,11.60
2018-01-27T04:32:45.546Z,11.60
2018-01-27T04:35:12.988Z,11.60
2018-01-27T04:37:40.500Z,11.60
2018-01-27T04:40:08.020Z,11.60
2018-01-27T04:42:35.468Z,11.60
2018-01-27T04:45:03.679Z,11.70
2018-01-27T04:47:31.157Z,11.60
2018-01-27T04:49:58.597Z,11.60
2018-01-27T04:52:26.025Z,11.70
2018-01-27T04:54:53.467Z,11.70
2018-01-27T04:57:20.904Z,11.70
2018-01-27T04:59:49.113Z,11.50
2018-01-27T05:02:16.573Z,11.50
2018-01-27T05:04:43.999Z,11.40
2018-01-27T05:07:12.262Z,11.20
2018-01-27T05:09:39.662Z,11.20
2018-01-27T05:12:07.120Z,11.30
2018-01-27T05:14:34.544Z,11.40
2018-01-27T05:17:02.757Z,11.50
2018-01-27T05:19:30.193Z,11.50
2018-01-27T05:21:57.634Z,11.50
2018-01-27T05:24:25.848Z,11.40
2018-01-27T05:26:53.302Z,11.40
2018-01-27T05:29:20.733Z,11.00
2018-01-27T05:31:48.204Z,11.10
2018-01-27T05:34:15.674Z,11.00
2018-01-27T05:36:43.096Z,11.00
2018-01-27T05:39:12.280Z,11.00
2018-01-27T05:41:39.716Z,11.00
2018-01-27T05:44:07.244Z,11.00
2018-01-27T05:46:35.432Z,10.90
2018-01-27T05:49:02.874Z,10.90
2018-01-27T05:51:30.317Z,10.80
2018-01-27T05:53:57.748Z,10.80
2018-01-27T05:56:25.952Z,10.60
2018-01-27T05:58:53.384Z,10.70
2018-01-27T06:01:21.594Z,10.80
2018-01-27T06:03:49.028Z,10.80
2018-01-27T06:06:17.259Z,10.70
2018-01-27T06:08:44.678Z,10.70
2018-01-27T06:11:12.113Z,10.60
2018-01-27T06:13:40.320Z,10.60
2018-01-27T06:16:07.777Z,10.60
2018-01-27T06:18:35.218Z,10.60
2018-01-27T06:21:02.653Z,10.60
2018-01-27T06:23:30.853Z,10.60
2018-01-27T06:25:58.325Z,10.60
2018-01-27T06:28:25.773Z,10.60
2018-01-27T06:30:53.211Z,10.70
2018-01-27T06:33:21.430Z,10.70
2018-01-27T06:35:48.905Z,10.60
2018-01-27T06:38:16.349Z,10.70
2018-01-27T06:40:43.795Z,10.70
2018-01-27T06:43:11.253Z,10.50
2018-01-27T06:45:38.702Z,10.60
2018-01-27T06:48:06.154Z,10.60
2018-01-27T06:50:33.593Z,10.70
2018-01-27T06:53:01.445Z,10.60
2018-01-27T06:55:29.650Z,10.20
2018-01-27T06:57:57.096Z,10.20
2018-01-27T07:00:24.554Z,10.40
2018-01-27T07:02:52.752Z,10.60
2018-01-27T07:05:20.186Z,10.50
2018-01-27T07:07:48.250Z,10.60
2018-01-27T07:10:16.440Z,10.50
2018-01-27T07:12:43.899Z,10.50
2018-01-27T07:15:11.334Z,10.70
2018-01-27T07:17:39.548Z,10.70
2018-01-27T07:20:06.987Z,10.60
2018-01-27T07:22:34.424Z,10.50
2018-01-27T07:25:02.627Z,10.60
2018-01-27T07:27:30.108Z,10.60
2018-01-27T07:29:57.549Z,10.70
2018-01-27T07:32:24.993Z,10.40
2018-01-27T07:34:52.423Z,10.40
2018-01-27T07:37:20.624Z,10.60
2018-01-27T07:39:48.061Z,10.60
2018-01-27T07:42:16.269Z,10.20
2018-01-27T07:44:43.692Z,10.20
2018-01-27T07:47:11.898Z,10.10
2018-01-27T07:49:39.333Z,10.00
2018-01-27T07:52:07.547Z,10.20
2018-01-27T07:54:34.968Z,10.20
2018-01-27T07:57:02.402Z,10.20
2018-01-27T07:59:29.841Z,10.10
2018-01-27T08:01:58.098Z,10.10
2018-01-27T08:04:25.565Z,9.90
2018-01-27T08:06:52.985Z,9.80
2018-01-27T08:09:20.432Z,9.70
2018-01-27T08:11:47.903Z,9.80
2018-01-27T08:14:15.346Z,10.00
2018-01-27T08:16:42.780Z,10.00
2018-01-27T08:19:10.238Z,10.30
2018-01-27T08:21:37.677Z,10.60
2018-01-27T08:24:05.138Z,10.80
2018-01-27T08:26:32.557Z,10.90
2018-01-27T08:29:00.006Z,11.00
2018-01-27T08:31:27.433Z,11.00
2018-01-27T08:33:55.645Z,10.70
2018-01-27T08:36:23.569Z,10.60
2018-01-27T08:38:51.434Z,10.80
2018-01-27T08:41:19.665Z,10.50
2018-01-27T08:43:47.093Z,10.50
2018-01-27T08:46:14.529Z,10.80
2018-01-27T08:48:42.752Z,10.10
2018-01-27T08:51:10.436Z,10.10
2018-01-27T08:53:37.887Z,10.20
2018-01-27T08:56:05.318Z,10.20
2018-01-27T08:58:32.827Z,10.30
2018-01-27T09:01:00.433Z,10.20
2018-01-27T09:03:27.876Z,10.30
2018-01-27T09:05:56.074Z,12.20
2018-01-27T09:08:23.528Z,12.20
2018-01-27T09:10:51.350Z,13.00
2018-01-27T09:13:19.797Z,13.60
2018-01-27T09:15:47.229Z,14.70
2018-01-27T09:18:14.683Z,15.10
2018-01-27T09:20:43.053Z,15.70
2018-01-27T09:23:10.527Z,15.80
2018-01-27T09:25:38.724Z,15.80
2018-01-27T09:28:06.216Z,15.80
2018-01-27T09:30:33.726Z,16.10
2018-01-27T09:33:01.158Z,16.40
2018-01-27T09:35:29.360Z,16.20
2018-01-27T09:37:56.808Z,16.10
2018-01-27T09:40:24.241Z,16.30
2018-01-27T09:42:52.477Z,15.50
2018-01-27T09:45:19.920Z,15.50
2018-01-27T09:47:47.392Z,15.50
2018-01-27T09:50:14.835Z,15.70
2018-01-27T09:52:42.268Z,15.10
2018-01-27T09:55:09.702Z,15.00
2018-01-27T09:57:37.908Z,14.60
2018-01-27T10:00:05.376Z,14.60
2018-01-27T10:02:32.805Z,14.40
2018-01-27T10:05:00.253Z,14.20
2018-01-27T10:07:28.456Z,14.70
2018-01-27T10:09:55.896Z,14.70
2018-01-27T10:12:23.345Z,15.50
2018-01-27T10:14:51.369Z,15.70
2018-01-27T10:17:18.820Z,14.60
2018-01-27T10:19:46.273Z,13.80
2018-01-27T10:22:13.724Z,13.10
2018-01-27T10:24:41.173Z,13.00
2018-01-27T10:27:08.640Z,13.60
2018-01-27T10:29:36.088Z,14.20
2018-01-27T10:32:03.538Z,14.90
2018-01-27T10:34:30.981Z,14.40
2018-01-27T10:36:58.426Z,14.60
2018-01-27T10:39:26.638Z,14.30
2018-01-27T10:41:54.084Z,14.30
2018-01-27T10:44:21.513Z,13.80
2018-01-27T10:46:49.729Z,13.80
2018-01-27T10:49:17.909Z,13.10
2018-01-27T10:51:45.360Z,13.10
2018-01-27T10:54:12.802Z,13.10
2018-01-27T10:56:40.237Z,13.30
2018-01-27T10:59:08.455Z,13.30
2018-01-27T11:01:35.889Z,13.30
2018-01-27T11:04:03.337Z,13.00
2018-01-27T11:06:30.763Z,12.70
2018-01-27T11:08:58.224Z,13.00
2018-01-27T11:11:25.716Z,12.90
2018-01-27T11:13:53.161Z,12.60
2018-01-27T11:16:21.369Z,12.90
2018-01-27T11:18:48.821Z,12.90
2018-01-27T11:21:16.271Z,12.90
2018-01-27T11:23:43.709Z,12.40
2018-01-27T11:26:11.905Z,12.80
2018-01-27T11:28:39.354Z,12.80
2018-01-27T11:31:06.830Z,12.30
2018-01-27T11:33:34.237Z,11.80
2018-01-27T11:36:02.484Z,12.10
2018-01-27T11:38:29.909Z,12.40
2018-01-27T11:40:57.352Z,12.60
2018-01-27T11:43:24.804Z,12.60
2018-01-27T11:45:53.018Z,12.40
2018-01-27T11:48:20.454Z,12.40
2018-01-27T11:50:47.944Z,12.30
2018-01-27T11:53:16.784Z,12.40
2018-01-27T11:55:44.985Z,12.20
2018-01-27T11:58:12.476Z,12.20
2018-01-27T12:00:39.936Z,11.90
2018-01-27T12:03:07.453Z,12.00
2018-01-27T12:05:34.889Z,12.80
2018-01-27T12:08:03.111Z,12.90
2018-01-27T12:10:30.550Z,12.90
2018-01-27T12:12:57.992Z,13.30
2018-01-27T12:15:25.438Z,13.70
2018-01-27T12:17:53.644Z,14.20
2018-01-27T12:20:21.182Z,14.20
2018-01-27T12:22:48.612Z,14.20
2018-01-27T12:25:16.049Z,13.80
2018-01-27T12:27:43.505Z,13.70
2018-01-27T12:30:10.937Z,14.30
2018-01-27T12:32:38.363Z,14.10
2018-01-27T12:35:05.812Z,13.70
2018-01-27T12:37:34.014Z,13.30
2018-01-27T12:40:01.496Z,13.40
2018-01-27T12:42:28.914Z,13.70
2018-01-27T12:44:57.112Z,13.10
2018-01-27T12:47:24.540Z,13.00
2018-01-27T12:49:52.854Z,12.70
2018-01-27T12:52:20.264Z,12.70
2018-01-27T12:54:48.481Z,13.90
2018-01-27T12:57:16.043Z,13.90
2018-01-27T12:59:43.462Z,14.50
2018-01-27T13:02:11.660Z,15.10
2018-01-27T13:04:39.108Z,15.10
2018-01-27T13:07:06.537Z,15.90
2018-01-27T13:09:33.973Z,17.20
2018-01-27T13:12:01.410Z,17.90
2018-01-27T13:14:28.843Z,16.70
2018-01-27T13:16:56.281Z,16.40
2018-01-27T13:19:24.482Z,15.70
2018-01-27T13:21:51.924Z,15.70
2018-01-27T13:24:19.368Z,15.30
2018-01-27T13:26:47.582Z,14.20
2018-01-27T13:29:15.018Z,14.20
2018-01-27T13:31:42.444Z,14.60
2018-01-27T13:34:09.880Z,15.60
2018-01-27T13:36:37.330Z,15.60
2018-01-27T13:39:04.766Z,15.40
2018-01-27T13:41:32.200Z,14.80
2018-01-27T13:44:00.401Z,14.10
2018-01-27T13:46:27.849Z,14.00
2018-01-27T13:48:55.314Z,13.80
2018-01-27T13:51:22.756Z,14.00
2018-01-27T13:53:50.222Z,14.40
2018-01-27T13:56:17.680Z,14.10
2018-01-27T13:58:45.104Z,13.90
2018-01-27T14:01:13.336Z,13.30
2018-01-27T14:03:40.744Z,13.20
2018-01-27T14:06:08.948Z,13.60
2018-01-27T14:08:36.437Z,13.60
2018-01-27T14:11:03.872Z,13.80
2018-01-27T14:13:31.314Z,14.20
2018-01-27T14:15:58.753Z,13.80
2018-01-27T14:18:26.941Z,13.20
2018-01-27T14:20:54.381Z,13.20
2018-01-27T14:23:22.577Z,13.50
2018-01-27T14:25:50.018Z,13.50
2018-01-27T14:28:18.215Z,14.00
2018-01-27T14:30:45.652Z,13.90
2018-01-27T14:33:13.134Z,13.50
2018-01-27T14:35:40.563Z,13.50
2018-01-27T14:38:08.830Z,13.60
2018-01-27T14:40:37.032Z,13.30
2018-01-27T14:43:04.470Z,13.20
2018-01-27T14:45:32.677Z,13.30
2018-01-27T14:48:00.116Z,13.20
2018-01-27T14:50:27.542Z,13.20
2018-01-27T14:52:54.978Z,13.30
2018-01-27T14:55:22.404Z,13.30
2018-01-27T14:57:49.840Z,13.40
2018-01-27T15:00:17.282Z,13.50
2018-01-27T15:02:45.482Z,13.40
2018-01-27T15:05:12.917Z,13.40
2018-01-27T15:07:41.125Z,13.30
2018-01-27T15:10:08.571Z,13.30
2018-01-27T15:12:36.756Z,13.40
2018-01-27T15:15:04.187Z,13.40
2018-01-27T15:17:32.423Z,13.10
2018-01-27T15:19:59.863Z,13.10
2018-01-27T15:22:27.309Z,12.70
2018-01-27T15:24:54.745Z,12.60
2018-01-27T15:27:22.184Z,12.70
2018-01-27T15:29:50.394Z,12.20
2018-01-27T15:32:17.866Z,12.20
2018-01-27T15:34:45.276Z,11.60
2018-01-27T15:37:13.496Z,11.90
2018-01-27T15:39:40.929Z,11.90
2018-01-27T15:42:08.372Z,11.90
2018-01-27T15:44:36.572Z,11.70
2018-01-27T15:47:04.016Z,11.70
2018-01-27T15:49:31.821Z,11.80
2018-01-27T15:51:59.257Z,11.80
2018-01-27T15:54:27.269Z,11.50
2018-01-27T15:56:54.700Z,11.50
2018-01-27T15:59:22.888Z,11.50
2018-01-27T16:01:50.320Z,11.50
2018-01-27T16:04:17.758Z,11.60
2018-01-27T16:06:45.192Z,11.50
2018-01-27T16:09:13.384Z,11.40
2018-01-27T16:11:40.820Z,11.40
2018-01-27T16:14:09.021Z,11.30
2018-01-27T16:16:36.464Z,11.30
2018-01-27T16:19:04.667Z,11.10
2018-01-27T16:21:32.108Z,11.10
2018-01-27T16:23:59.540Z,11.10
2018-01-27T16:26:27.761Z,11.20
2018-01-27T16:28:55.197Z,11.20
2018-01-27T16:31:22.626Z,11.30
2018-01-27T16:33:50.070Z,11.10
2018-01-27T16:36:17.517Z,11.20
2018-01-27T16:38:44.943Z,11.20
2018-01-27T16:41:12.383Z,11.00
2018-01-27T16:43:39.823Z,10.50
2018-01-27T16:46:08.024Z,11.00
2018-01-27T16:48:35.461Z,11.00
2018-01-27T16:51:03.666Z,11.00
2018-01-27T16:53:31.114Z,11.00
2018-01-27T16:55:58.549Z,11.10
2018-01-27T16:58:26.764Z,10.80
2018-01-27T17:00:54.193Z,10.80
2018-01-27T17:03:21.633Z,11.10
2018-01-27T17:05:49.832Z,11.20
2018-01-27T17:08:17.269Z,11.20
2018-01-27T17:10:45.773Z,10.40
2018-01-27T17:13:13.226Z,10.30
2018-01-27T17:15:40.701Z,10.70
2018-01-27T17:18:08.161Z,10.80
2018-01-27T17:20:36.360Z,10.60
2018-01-27T17:23:03.796Z,10.60
2018-01-27T17:25:31.230Z,10.90
2018-01-27T17:27:58.668Z,10.50
2018-01-27T17:30:26.913Z,10.20
2018-01-27T17:32:54.347Z,10.20
2018-01-27T17:35:21.772Z,10.20
2018-01-27T17:37:49.283Z,9.80
2018-01-27T17:40:17.570Z,9.90
2018-01-27T17:42:44.988Z,9.70
2018-01-27T17:45:12.427Z,9.90
2018-01-27T17:47:40.617Z,10.00
2018-01-27T17:50:08.053Z,10.00
2018-01-27T17:52:36.253Z,9.90
2018-01-27T17:55:03.672Z,9.80
2018-01-27T17:57:31.884Z,9.90
2018-01-27T17:59:59.310Z,9.80
2018-01-27T18:02:27.528Z,10.00
2018-01-27T18:04:54.970Z,10.00
2018-01-27T18:07:22.396Z,9.80
2018-01-27T18:09:50.609Z,10.30
2018-01-27T18:12:18.044Z,10.30
2018-01-27T18:14:45.480Z,10.00
2018-01-27T18:17:13.675Z,9.70
2018-01-27T18:19:41.109Z,9.60
2018-01-27T18:22:09.308Z,9.80
2018-01-27T18:24:36.735Z,9.80
2018-01-27T18:27:05.068Z,9.60
2018-01-27T18:29:32.509Z,9.90
2018-01-27T18:31:59.928Z,9.90
2018-01-27T18:34:27.369Z,9.70
2018-01-27T18:36:54.791Z,9.70
2018-01-27T18:39:22.223Z,9.90
2018-01-27T18:41:49.680Z,9.80
2018-01-27T18:44:17.880Z,9.80
2018-01-27T18:46:45.322Z,9.80
2018-01-27T18:49:12.782Z,9.90
2018-01-27T18:51:40.205Z,10.10
2018-01-27T18:54:07.648Z,9.90
2018-01-27T18:56:35.070Z,9.90
2018-01-27T18:59:02.508Z,9.70
2018-01-27T19:01:30.704Z,9.80
2018-01-27T19:03:58.143Z,9.80
2018-01-27T19:06:25.576Z,9.80
2018-01-27T19:08:53.831Z,10.00
2018-01-27T19:11:21.264Z,10.00
2018-01-27T19:13:48.723Z,10.00
2018-01-27T19:16:16.157Z,9.90
2018-01-27T19:18:43.597Z,10.00
2018-01-27T19:21:11.022Z,9.80
2018-01-27T19:23:38.456Z,9.80
2018-01-27T19:26:05.874Z,10.00
2018-01-27T19:28:33.299Z,9.70
2018-01-27T19:31:01.509Z,9.50
2018-01-27T19:33:28.960Z,9.40
2018-01-27T19:35:56.408Z,9.60
2018-01-27T19:38:24.623Z,9.70
2018-01-27T19:40:52.057Z,9.70
2018-01-27T19:43:19.493Z,10.00
2018-01-27T19:45:47.685Z,9.40
2018-01-27T19:48:15.114Z,9.40
2018-01-27T19:50:42.545Z,9.70
2018-01-27T19:53:09.993Z,9.80
2018-01-27T19:55:37.425Z,9.80
2018-01-27T19:58:04.879Z,9.50
2018-01-27T20:00:32.305Z,9.50
2018-01-27T20:03:00.534Z,9.60
2018-01-27T20:05:27.965Z,9.60
2018-01-27T20:07:55.391Z,9.80
2018-01-27T20:10:23.624Z,9.80
2018-01-27T20:12:51.048Z,9.80
2018-01-27T20:15:18.505Z,9.50
2018-01-27T20:17:45.960Z,9.40
2018-01-27T20:20:13.392Z,9.40
2018-01-27T20:22:40.820Z,9.70
2018-01-27T20:25:08.272Z,9.40
2018-01-27T20:27:35.725Z,9.40
2018-01-27T20:30:03.136Z,9.60
2018-01-27T20:32:31.339Z,9.60
2018-01-27T20:34:58.764Z,9.50
2018-01-27T20:37:27.839Z,9.30
2018-01-27T20:39:55.269Z,9.30
2018-01-27T20:42:22.705Z,9.50
2018-01-27T20:44:50.141Z,9.30
2018-01-27T20:47:18.328Z,9.50
2018-01-27T20:49:45.761Z,9.50
2018-01-27T20:52:13.953Z,9.40
2018-01-27T20:54:41.381Z,9.40
2018-01-27T20:57:09.584Z,9.20
2018-01-27T20:59:37.020Z,9.20
2018-01-27T21:02:04.915Z,9.40
2018-01-27T21:04:32.340Z,9.30
2018-01-27T21:06:59.781Z,9.20
2018-01-27T21:09:27.225Z,9.10
2018-01-27T21:11:55.448Z,9.30
2018-01-27T21:14:23.658Z,9.50
2018-01-27T21:16:51.096Z,9.50
2018-01-27T21:19:18.528Z,9.40
2018-01-27T21:21:46.809Z,9.40
2018-01-27T21:24:15.073Z,9.50
2018-01-27T21:26:42.500Z,9.50
2018-01-27T21:29:09.920Z,9.20
2018-01-27T21:31:37.356Z,9.40
2018-01-27T21:34:05.108Z,9.20
2018-01-27T21:36:32.540Z,9.40
2018-01-27T21:38:59.992Z,9.70
2018-01-27T21:41:27.431Z,9.10
2018-01-27T21:43:54.857Z,9.30
2018-01-27T21:46:23.048Z,9.20
2018-01-27T21:48:50.481Z,9.20
2018-01-27T21:51:17.948Z,9.00
2018-01-27T21:53:45.378Z,8.80
2018-01-27T21:56:12.835Z,9.50
2018-01-27T21:58:40.287Z,9.50
2018-01-27T22:01:07.718Z,9.50
2018-01-27T22:03:35.148Z,9.60
2018-01-27T22:06:02.577Z,9.70
2018-01-27T22:08:30.795Z,9.50
2018-01-27T22:10:58.233Z,9.50
2018-01-27T22:13:25.672Z,9.40
2018-01-27T22:15:53.880Z,9.50
2018-01-27T22:18:21.317Z,9.50
2018-01-27T22:20:49.705Z,9.60
2018-01-27T22:23:17.137Z,9.60
2018-01-27T22:25:45.345Z,10.10
2018-01-27T22:28:12.777Z,10.10
2018-01-27T22:30:40.992Z,9.30
2018-01-27T22:33:08.421Z,9.40
2018-01-27T22:35:36.624Z,9.20
2018-01-27T22:38:05.757Z,9.10
2018-01-27T22:40:33.194Z,9.10
2018-01-27T22:43:00.640Z,9.20
2018-01-27T22:45:28.060Z,9.40
2018-01-27T22:47:56.282Z,9.40
2018-01-27T22:50:23.720Z,9.40
2018-01-27T22:52:51.145Z,9.40
2018-01-27T22:55:19.356Z,9.60
2018-01-27T22:57:46.813Z,9.60
2018-01-27T23:00:14.232Z,9.70
2018-01-27T23:02:42.420Z,9.30
2018-01-27T23:05:09.860Z,9.30
2018-01-27T23:07:38.076Z,9.70
2018-01-27T23:10:05.513Z,9.70
2018-01-27T23:12:32.949Z,10.20
2018-01-27T23:15:01.187Z,10.00
2018-01-27T23:17:28.624Z,9.90
2018-01-27T23:19:56.048Z,9.90
2018-01-27T23:22:24.245Z,9.50
2018-01-27T23:24:51.673Z,9.50
2018-01-27T23:27:19.878Z,9.20
2018-01-27T23:29:47.304Z,9.20
2018-01-27T23:32:15.509Z,9.30
2018-01-27T23:34:42.936Z,9.30
2018-01-27T23:37:11.992Z,9.00
2018-01-27T23:39:40.239Z,8.60
2018-01-27T23:42:07.669Z,8.60
2018-01-27T23:44:35.853Z,8.60
2018-01-27T23:47:04.056Z,8.90
2018-01-27T23:49:31.496Z,8.90
2018-01-27T23:51:58.946Z,8.70
2018-01-27T23:54:26.381Z,8.60
2018-01-27T23:56:53.821Z,8.40
2018-01-27T23:59:21.241Z,8.50
